Time;durP1;ratioP1;P1;durP2;ratioP2;P2;SDS_P1;SDS_P2;PMS_P1;PMS_P2;Temp;Humidity;BMP_temperature;BMP_pressure;BME280_temperature;BME280_humidity;BME280_pressure;Samples;Min_cycle;Max_cycle;Signal;HPM_P1;HPM_P2
2021/12/27 00:01:57;;;;;;;58.60;21.85;;;;;;;-0.06;100.00;98128.88;4962721;28;20031;-59
2021/12/27 00:04:23;;;;;;;56.38;20.08;;;;;;;-0.07;100.00;98127.25;4948589;28;20062;-59
2021/12/27 00:06:48;;;;;;;53.58;20.45;;;;;;;-0.01;100.00;98124.63;4943427;28;20046;-59
2021/12/27 00:09:13;;;;;;;46.80;19.92;;;;;;;-0.08;100.00;98126.44;4953973;28;20042;-59
2021/12/27 00:11:40;;;;;;;55.10;21.52;;;;;;;-0.06;100.00;98128.88;4957663;28;20130;-59
2021/12/27 00:14:05;;;;;;;48.17;20.25;;;;;;;0.01;100.00;98124.44;4952001;28;20039;-59
2021/12/27 00:16:30;;;;;;;59.80;22.02;;;;;;;0.05;100.00;98120.38;4947914;28;20047;-59
2021/12/27 00:18:56;;;;;;;45.20;19.83;;;;;;;-0.02;100.00;98127.47;4955683;28;20395;-59
2021/12/27 00:21:21;;;;;;;50.25;20.58;;;;;;;-0.02;100.00;98125.63;4949699;28;20039;-59
2021/12/27 00:23:47;;;;;;;52.58;20.33;;;;;;;-0.01;100.00;98126.44;4952696;28;20034;-59
2021/12/27 00:26:12;;;;;;;47.85;21.60;;;;;;;0.00;100.00;98133.34;4944027;28;20098;-59
2021/12/27 00:28:38;;;;;;;47.58;20.08;;;;;;;0.04;100.00;98129.28;4955097;28;20039;-59
2021/12/27 00:31:03;;;;;;;53.20;20.30;;;;;;;0.03;100.00;98122.41;4958728;28;20039;-59
2021/12/27 00:33:29;;;;;;;48.72;19.67;;;;;;;0.07;100.00;98128.06;4949585;28;20039;-59
2021/12/27 00:35:54;;;;;;;51.00;21.30;;;;;;;0.06;100.00;98122.00;4949260;28;20378;-60
2021/12/27 00:38:20;;;;;;;45.45;19.20;;;;;;;0.05;100.00;98115.13;4942887;28;20384;-59
2021/12/27 00:40:45;;;;;;;49.30;19.63;;;;;;;-0.04;100.00;98109.22;4948323;28;20062;-60
2021/12/27 00:43:11;;;;;;;43.55;17.38;;;;;;;-0.22;100.00;98109.81;4952453;28;20506;-59
2021/12/27 00:45:36;;;;;;;42.55;17.38;;;;;;;-0.07;100.00;98107.00;4950394;28;20043;-60
2021/12/27 00:48:02;;;;;;;51.50;19.73;;;;;;;0.13;100.00;98106.19;4948215;28;20050;-60
2021/12/27 00:50:27;;;;;;;51.33;20.25;;;;;;;0.05;100.00;98103.75;4956361;28;20043;-61
2021/12/27 00:52:53;;;;;;;49.95;19.25;;;;;;;0.03;100.00;98103.97;4950384;28;20541;-61
2021/12/27 00:55:18;;;;;;;46.65;20.45;;;;;;;0.07;100.00;98101.72;4949334;28;20032;-61
2021/12/27 00:57:46;;;;;;;54.80;20.70;;;;;;;0.09;100.00;98105.78;4948521;28;20033;-60
2021/12/27 01:00:16;;;;;;;48.83;20.15;;;;;;;0.17;100.00;98097.66;4950106;28;20039;-61
2021/12/27 01:02:42;;;;;;;44.08;17.33;;;;;;;0.26;100.00;98098.28;4953525;28;20039;-60
2021/12/27 01:05:07;;;;;;;49.38;19.10;;;;;;;0.16;100.00;98089.97;4950938;28;20062;-59
2021/12/27 01:07:33;;;;;;;51.88;19.83;;;;;;;0.11;100.00;98092.41;4967276;28;20046;-61
2021/12/27 01:12:35;;;;;;;50.60;20.98;;;;;;;-0.07;100.00;98090.38;4956775;28;20130;-60
2021/12/27 01:15:22;;;;;;;52.67;19.02;;;;;;;0.04;100.00;98092.41;4951196;28;20027;-61
2021/12/27 01:17:47;;;;;;;53.10;20.23;;;;;;;0.06;100.00;98090.38;4951305;28;20543;-61
2021/12/27 01:20:15;;;;;;;49.83;19.83;;;;;;;0.20;100.00;98101.72;4947175;28;20039;-60
2021/12/27 01:22:40;;;;;;;50.70;19.67;;;;;;;0.18;100.00;98094.03;4949171;28;20034;-60
2021/12/27 01:25:06;;;;;;;45.65;19.08;;;;;;;0.17;100.00;98092.38;4944273;28;20031;-60
2021/12/27 01:27:32;;;;;;;50.08;20.25;;;;;;;0.16;100.00;98096.06;4952517;28;20615;-60
2021/12/27 01:29:58;;;;;;;52.42;20.30;;;;;;;0.21;100.00;98096.25;4954818;28;20046;-60
2021/12/27 01:32:26;;;;;;;51.72;21.23;;;;;;;0.29;100.00;98095.22;4947685;28;20517;-60
2021/12/27 01:34:53;;;;;;;58.38;21.20;;;;;;;0.21;100.00;98092.81;4950886;28;20042;-60
2021/12/27 01:37:18;;;;;;;49.03;20.92;;;;;;;0.00;100.00;98085.94;4946526;28;20043;-60
2021/12/27 01:39:45;;;;;;;59.28;21.50;;;;;;;0.00;100.00;98085.94;4953693;28;20552;-60
2021/12/27 01:42:10;;;;;;;61.38;21.67;;;;;;;0.09;100.00;98089.16;4947860;28;20442;-60
2021/12/27 01:44:36;;;;;;;56.72;20.63;;;;;;;0.03;100.00;98090.00;4947038;28;20031;-60
2021/12/27 01:47:01;;;;;;;57.55;21.42;;;;;;;0.11;100.00;98093.22;4947481;28;20039;-60
2021/12/27 01:49:27;;;;;;;55.33;21.67;;;;;;;0.18;100.00;98094.03;4947744;28;20057;-60
2021/12/27 01:51:52;;;;;;;53.25;21.23;;;;;;;0.22;100.00;98091.78;4951019;28;20470;-60
2021/12/27 01:54:18;;;;;;;54.42;21.00;;;;;;;0.20;100.00;98093.81;4945586;28;20023;-60
2021/12/27 01:56:43;;;;;;;60.10;22.13;;;;;;;0.15;100.00;98101.50;4949946;28;20035;-61
2021/12/27 01:59:08;;;;;;;62.20;23.35;;;;;;;0.12;100.00;98088.75;4951945;28;20478;-60
2021/12/27 02:01:34;;;;;;;63.60;21.58;;;;;;;0.18;100.00;98083.50;4949234;28;20122;-61
2021/12/27 02:03:59;;;;;;;56.65;22.27;;;;;;;0.25;100.00;98080.03;4946428;28;20577;-61
2021/12/27 02:06:25;;;;;;;62.95;22.50;;;;;;;0.14;100.00;98084.91;4948686;28;20043;-61
2021/12/27 02:08:50;;;;;;;58.53;22.02;;;;;;;0.26;100.00;98090.38;4953692;28;20034;-59
2021/12/27 02:11:16;;;;;;;59.75;22.67;;;;;;;0.18;100.00;98083.50;4944527;28;20039;-59
2021/12/27 02:13:44;;;;;;;56.90;21.42;;;;;;;0.30;100.00;98085.50;4953774;28;20022;-58
2021/12/27 02:16:10;;;;;;;59.58;22.02;;;;;;;0.32;100.00;98088.75;4948426;28;20430;-58
2021/12/27 02:18:37;;;;;;;60.33;23.10;;;;;;;0.26;100.00;98086.94;4948147;28;20042;-60
2021/12/27 02:21:03;;;;;;;66.70;23.02;;;;;;;0.35;100.00;98078.63;4950876;28;20548;-59
2021/12/27 02:23:28;;;;;;;60.03;22.05;;;;;;;0.37;100.00;98076.56;4951188;28;20038;-60
2021/12/27 02:25:53;;;;;;;65.00;22.83;;;;;;;0.51;100.00;98077.38;4943460;28;20043;-61
2021/12/27 02:28:20;;;;;;;59.25;22.35;;;;;;;0.42;100.00;98075.94;4948160;28;20258;-60
2021/12/27 02:30:45;;;;;;;60.85;23.40;;;;;;;0.42;100.00;98073.31;4958495;28;20054;-61
2021/12/27 02:33:11;;;;;;;55.08;22.20;;;;;;;0.43;100.00;98075.75;4950705;28;20046;-60
2021/12/27 02:35:47;;;;;;;57.58;21.58;;;;;;;0.48;100.00;98080.41;4955202;28;20141;-60
2021/12/27 02:38:24;;;;;;;54.33;21.13;;;;;;;0.28;100.00;98074.38;4950922;28;20118;-60
2021/12/27 02:40:53;;;;;;;52.67;21.40;;;;;;;0.26;100.00;98063.22;4947571;28;20461;-60
2021/12/27 02:43:20;;;;;;;52.55;20.70;;;;;;;0.27;100.00;98059.56;4948071;28;20481;-60
2021/12/27 02:45:50;;;;;;;57.83;21.30;;;;;;;0.28;100.00;98063.81;4955555;28;20098;-60
2021/12/27 02:48:16;;;;;;;;;;;;;;;0.27;100.00;98064.81;4947996;28;20591;-60
2021/12/27 02:50:43;;;;;;;49.80;19.73;;;;;;;0.32;100.00;98068.47;4947281;28;20276;-60
2021/12/27 02:53:08;;;;;;;49.65;21.10;;;;;;;0.37;100.00;98065.22;4950812;28;20537;-60
2021/12/27 02:55:34;;;;;;;54.70;22.33;;;;;;;0.42;100.00;98063.59;4946202;28;20052;-60
2021/12/27 02:57:59;;;;;;;49.38;20.88;;;;;;;0.41;100.00;98066.44;4948874;28;20039;-60
2021/12/27 03:00:30;;;;;;;59.67;22.50;;;;;;;0.35;100.00;98051.41;4952021;28;20493;-61
2021/12/27 03:02:56;;;;;;;54.85;21.23;;;;;;;0.28;100.00;98051.44;4931130;28;20035;-60
2021/12/27 03:05:24;;;;;;;56.00;21.88;;;;;;;0.36;100.00;98042.53;4949240;28;20461;-60
2021/12/27 03:07:50;;;;;;;56.50;23.02;;;;;;;0.44;100.00;98052.84;4953261;28;20037;-61
2021/12/27 03:10:17;;;;;;;50.83;19.38;;;;;;;0.56;100.00;98051.19;4949266;28;20122;-61
2021/12/27 03:12:44;;;;;;;53.58;22.23;;;;;;;0.59;100.00;98047.31;4950852;28;20057;-61
2021/12/27 03:15:10;;;;;;;46.20;19.10;;;;;;;0.69;100.00;98041.63;4952456;28;20477;-61
2021/12/27 03:17:38;;;;;;;60.05;23.02;;;;;;;0.59;100.00;98042.06;4949202;28;20813;-60
2021/12/27 03:20:04;;;;;;;59.00;21.02;;;;;;;0.68;100.00;98055.84;4955073;28;20525;-61
2021/12/27 03:22:30;;;;;;;59.20;22.00;;;;;;;0.57;100.00;98052.00;4948726;28;20038;-61
2021/12/27 03:24:55;;;;;;;56.58;20.52;;;;;;;0.67;100.00;98046.28;4947636;28;20035;-60
2021/12/27 03:27:21;;;;;;;57.08;21.40;;;;;;;0.58;100.00;98049.16;4948041;28;20046;-60
2021/12/27 03:29:46;;;;;;;55.80;20.60;;;;;;;0.56;100.00;98053.81;4945723;28;20035;-60
2021/12/27 03:32:11;;;;;;;57.55;22.33;;;;;;;0.57;100.00;98044.88;4948047;28;20043;-64
2021/12/27 03:34:42;;;;;;;50.67;20.63;;;;;;;0.51;100.00;98034.38;4953024;28;20697;-60
2021/12/27 03:37:09;;;;;;;41.92;18.92;;;;;;;0.51;100.00;98037.00;4947946;28;20169;-60
2021/12/27 03:39:34;;;;;;;52.90;21.73;;;;;;;0.61;100.00;98025.00;4952291;28;20031;-60
2021/12/27 03:41:59;;;;;;;49.20;21.02;;;;;;;0.59;100.00;98011.22;4943940;28;20040;-60
2021/12/27 03:44:25;;;;;;;48.30;20.88;;;;;;;0.53;100.00;98022.59;4946087;28;20307;-60
2021/12/27 03:46:50;;;;;;;49.67;20.80;;;;;;;0.55;100.00;98020.56;4957637;28;20493;-61
2021/12/27 03:49:16;;;;;;;48.22;20.30;;;;;;;0.54;100.00;98018.94;4949584;28;20061;-60
2021/12/27 03:51:43;;;;;;;39.17;18.50;;;;;;;0.58;100.00;98020.16;4952819;28;20051;-60
2021/12/27 03:54:09;;;;;;;39.13;19.00;;;;;;;0.59;100.00;98015.69;4945924;28;20083;-60
2021/12/27 03:56:35;;;;;;;38.05;17.35;;;;;;;0.70;100.00;98019.50;4958021;28;20046;-59
2021/12/27 03:59:20;;;;;;;42.10;18.63;;;;;;;0.76;100.00;98016.84;4951960;28;20038;-59
2021/12/27 04:01:45;;;;;;;47.78;19.85;;;;;;;0.72;100.00;98013.00;4949849;28;20039;-60
2021/12/27 04:04:10;;;;;;;52.33;20.35;;;;;;;0.70;100.00;98014.22;4950291;28;20447;-60
2021/12/27 04:06:36;;;;;;;52.30;21.85;;;;;;;0.68;100.00;98014.44;4952494;28;20038;-59
2021/12/27 04:09:01;;;;;;;60.72;21.60;;;;;;;0.60;100.00;98010.22;4956124;28;20027;-59
2021/12/27 04:11:28;;;;;;;52.90;19.95;;;;;;;0.63;100.00;98004.53;4953388;28;20173;-59
2021/12/27 04:13:55;;;;;;;45.60;20.00;;;;;;;0.63;100.00;98001.88;4951913;28;20097;-59
2021/12/27 04:16:21;;;;;;;46.17;19.90;;;;;;;0.62;100.00;97996.81;4951821;28;20498;-59
2021/12/27 04:18:46;;;;;;;49.13;19.25;;;;;;;0.66;100.00;98003.28;4953432;28;20034;-58
2021/12/27 04:21:12;;;;;;;52.40;20.23;;;;;;;0.70;100.00;98012.41;4952255;28;20047;-59
2021/12/27 04:23:37;;;;;;;45.13;19.83;;;;;;;0.66;100.00;98005.94;4951201;28;20022;-59
2021/12/27 04:26:03;;;;;;;49.45;21.02;;;;;;;0.59;100.00;97999.88;4946183;28;20180;-59
2021/12/27 04:28:28;;;;;;;43.58;19.05;;;;;;;0.61;100.00;98003.91;4950300;28;20038;-59
2021/12/27 04:30:53;;;;;;;50.83;19.40;;;;;;;0.61;100.00;98005.75;4943585;28;20737;-61
2021/12/27 04:33:19;;;;;;;46.20;19.05;;;;;;;0.58;100.00;98000.91;4953895;28;20031;-58
2021/12/27 04:35:44;;;;;;;49.67;21.13;;;;;;;0.53;100.00;97992.78;4950654;28;20520;-59
2021/12/27 04:38:10;;;;;;;44.50;18.10;;;;;;;0.53;100.00;97996.25;4951879;28;20466;-59
2021/12/27 04:40:36;;;;;;;50.25;20.45;;;;;;;0.49;100.00;97989.75;4950492;28;20042;-59
2021/12/27 04:43:17;;;;;;;50.97;19.00;;;;;;;0.58;100.00;97988.50;4955821;28;20022;-59
2021/12/27 04:45:42;;;;;;;45.90;18.63;;;;;;;0.59;100.00;97990.13;4946444;28;20130;-59
2021/12/27 04:48:08;;;;;;;40.88;18.25;;;;;;;0.63;100.00;97986.06;4946610;28;20030;-59
2021/12/27 04:50:34;;;;;;;46.42;17.67;;;;;;;0.61;100.00;97998.63;4950178;28;20054;-59
2021/12/27 04:52:59;;;;;;;47.47;19.80;;;;;;;0.69;100.00;97994.16;4949372;28;20031;-59
2021/12/27 04:55:25;;;;;;;43.22;18.45;;;;;;;0.63;100.00;97980.78;4943312;28;20450;-59
2021/12/27 04:57:50;;;;;;;43.92;17.23;;;;;;;0.61;100.00;97992.56;4954924;28;20035;-59
2021/12/27 05:00:16;;;;;;;45.08;18.02;;;;;;;0.66;100.00;97986.66;4950133;28;20075;-59
2021/12/27 05:02:41;;;;;;;45.47;19.02;;;;;;;0.71;100.00;98000.03;4949007;28;20046;-59
2021/12/27 05:05:07;;;;;;;47.08;17.48;;;;;;;0.74;100.00;97991.69;4953304;28;20035;-59
2021/12/27 05:07:32;;;;;;;40.83;17.25;;;;;;;0.73;100.00;97993.53;4952622;28;20461;-59
2021/12/27 05:09:58;;;;;;;48.78;18.83;;;;;;;0.77;100.00;97994.72;4947638;28;20042;-59
2021/12/27 05:12:23;;;;;;;45.67;18.38;;;;;;;0.78;100.00;97990.28;4949250;28;20043;-59
2021/12/27 05:14:49;;;;;;;51.17;19.63;;;;;;;0.77;100.00;97988.63;4948877;28;20159;-59
2021/12/27 05:17:14;;;;;;;53.15;18.60;;;;;;;0.80;100.00;97985.56;4950129;28;20035;-59
2021/12/27 05:19:39;;;;;;;138.48;19.95;;;;;;;0.78;100.00;97979.72;4950136;28;20315;-59
2021/12/27 05:22:05;;;;;;;241.57;20.30;;;;;;;0.58;100.00;97977.16;4954256;28;20322;-59
2021/12/27 05:24:30;;;;;;;53.28;17.48;;;;;;;0.52;100.00;97984.06;4949516;28;20050;-59
2021/12/27 05:26:56;;;;;;;103.00;19.67;;;;;;;0.52;100.00;97973.50;4948581;28;20773;-58
2021/12/27 05:29:22;;;;;;;67.90;17.95;;;;;;;0.57;100.00;97973.69;4950488;28;20023;-58
2021/12/27 05:31:47;;;;;;;46.70;16.33;;;;;;;0.62;100.00;97968.63;4946402;28;20498;-60
2021/12/27 05:34:14;;;;;;;70.65;19.45;;;;;;;0.64;100.00;97961.28;4949965;28;20415;-58
2021/12/27 05:36:42;;;;;;;52.75;18.42;;;;;;;0.56;100.00;97961.53;4946682;28;20046;-59
2021/12/27 05:39:08;;;;;;;44.10;16.75;;;;;;;0.62;100.00;97958.09;4946962;28;20031;-61
2021/12/27 05:41:33;;;;;;;52.47;17.55;;;;;;;0.62;100.00;97958.09;4952875;28;20130;-59
2021/12/27 05:43:59;;;;;;;50.17;19.02;;;;;;;0.68;100.00;97966.16;4945486;28;20027;-59
2021/12/27 05:46:24;;;;;;;55.58;19.20;;;;;;;0.69;100.00;97973.06;4947528;28;20035;-59
2021/12/27 05:48:50;;;;;;;58.20;19.35;;;;;;;0.78;100.00;97961.25;4952811;28;20023;-59
2021/12/27 05:51:15;;;;;;;54.53;19.35;;;;;;;0.77;100.00;97962.25;4962851;28;20050;-59
2021/12/27 05:53:40;;;;;;;51.85;19.95;;;;;;;0.77;100.00;97959.63;4952039;28;20120;-59
2021/12/27 05:56:06;;;;;;;43.65;18.52;;;;;;;0.73;100.00;97958.44;4952296;28;20045;-59
2021/12/27 05:58:31;;;;;;;55.22;20.60;;;;;;;0.74;100.00;97960.03;4952850;28;20489;-59
2021/12/27 06:00:57;;;;;;;56.30;21.77;;;;;;;0.72;100.00;97964.72;4950395;28;20157;-62
2021/12/27 06:03:22;;;;;;;51.65;19.40;;;;;;;0.76;100.00;97974.63;4950840;28;20043;-59
2021/12/27 06:05:48;;;;;;;58.25;21.42;;;;;;;0.78;100.00;97966.53;4948767;28;20163;-58
2021/12/27 06:08:13;;;;;;;54.30;20.85;;;;;;;0.71;100.00;97949.91;4952964;28;20039;-61
2021/12/27 06:10:38;;;;;;;47.83;19.98;;;;;;;0.70;100.00;97950.94;4952563;28;20582;-61
2021/12/27 06:13:04;;;;;;;45.58;18.38;;;;;;;0.82;100.00;97947.44;4946637;28;20028;-59
2021/12/27 06:15:29;;;;;;;47.90;18.17;;;;;;;0.85;100.00;97936.47;4949112;28;20039;-59
2021/12/27 06:17:55;;;;;;;59.05;22.85;;;;;;;0.80;100.00;97943.38;4952061;28;20050;-61
2021/12/27 06:20:20;;;;;;;53.78;21.75;;;;;;;0.67;100.00;97938.16;4951573;28;20051;-58
2021/12/27 06:22:52;;;;;;;54.72;20.70;;;;;;;0.81;100.00;97939.72;4951065;28;20055;-59
2021/12/27 06:25:18;;;;;;;47.65;19.45;;;;;;;0.91;100.00;97934.00;4948099;28;20047;-59
2021/12/27 06:27:44;;;;;;;53.42;20.27;;;;;;;0.90;100.00;97945.53;4947271;28;20434;-59
2021/12/27 06:30:10;;;;;;;53.15;18.95;;;;;;;0.83;100.00;97943.78;4951229;28;20041;-59
2021/12/27 06:32:36;;;;;;;45.58;18.60;;;;;;;0.80;100.00;97948.63;4950668;28;20145;-58
2021/12/27 06:35:02;;;;;;;49.10;18.73;;;;;;;0.80;100.00;97948.63;4947639;28;20110;-61
2021/12/27 06:37:27;;;;;;;47.05;17.23;;;;;;;0.83;100.00;97945.59;4949061;28;20039;-58
2021/12/27 06:39:53;;;;;;;49.88;18.50;;;;;;;0.84;100.00;97947.22;4945426;28;20623;-61
2021/12/27 06:42:18;;;;;;;55.20;20.00;;;;;;;0.78;100.00;97942.78;4949458;28;20043;-59
2021/12/27 06:44:44;;;;;;;52.97;18.27;;;;;;;0.76;100.00;97942.19;4953322;28;20420;-59
2021/12/27 06:47:09;;;;;;;52.30;20.00;;;;;;;0.73;100.00;97935.50;4951271;28;20576;-59
2021/12/27 06:49:36;;;;;;;48.80;19.02;;;;;;;0.79;100.00;97941.75;4948202;28;20505;-60
2021/12/27 06:52:02;;;;;;;55.00;18.55;;;;;;;0.82;100.00;97941.34;4946858;28;20054;-61
2021/12/27 06:54:27;;;;;;;55.97;18.80;;;;;;;0.79;100.00;97939.91;4948195;28;20023;-61
2021/12/27 06:56:54;;;;;;;53.50;19.90;;;;;;;0.82;100.00;97942.16;4947476;28;20039;-60
2021/12/27 06:59:20;;;;;;;56.25;19.63;;;;;;;0.83;100.00;97935.84;4946621;28;20035;-59
2021/12/27 07:01:45;;;;;;;50.80;19.10;;;;;;;0.81;100.00;97937.09;4946873;28;20046;-61
2021/12/27 07:04:10;;;;;;;45.10;16.90;;;;;;;0.82;100.00;97933.41;4956720;28;20047;-61
2021/12/27 07:06:36;;;;;;;51.10;18.58;;;;;;;0.75;100.00;97930.84;4949099;28;20051;-62
2021/12/27 07:09:04;;;;;;;57.00;20.23;;;;;;;0.81;100.00;97929.19;4952731;28;20054;-60
2021/12/27 07:11:29;;;;;;;48.67;18.73;;;;;;;0.61;100.00;97918.72;4945370;28;20063;-60
2021/12/27 07:13:55;;;;;;;65.90;23.60;;;;;;;0.52;100.00;97914.69;4947520;28;20183;-60
2021/12/27 07:16:20;;;;;;;63.03;24.55;;;;;;;0.58;100.00;97921.78;4949420;28;20042;-60
2021/12/27 07:18:46;;;;;;;64.38;22.00;;;;;;;0.67;100.00;97927.63;4951334;28;20043;-60
2021/12/27 07:21:11;;;;;;;58.63;19.13;;;;;;;0.73;100.00;97927.59;4953889;28;20050;-60
2021/12/27 07:23:36;;;;;;;52.88;19.35;;;;;;;0.72;100.00;97930.44;4962412;28;20062;-60
2021/12/27 07:26:02;;;;;;;55.35;19.45;;;;;;;0.80;100.00;97938.91;4953233;28;20039;-60
2021/12/27 07:28:27;;;;;;;49.42;18.45;;;;;;;0.88;100.00;97940.50;4955567;28;20027;-60
2021/12/27 07:30:53;;;;;;;53.72;19.42;;;;;;;0.89;100.00;97942.09;4951436;28;20054;-60
2021/12/27 07:33:19;;;;;;;50.10;19.65;;;;;;;0.85;100.00;97931.19;4965217;28;20148;-60
2021/12/27 07:35:44;;;;;;;73.50;19.52;;;;;;;0.79;100.00;97933.84;4953807;28;20513;-60
2021/12/27 07:38:10;;;;;;;57.75;19.05;;;;;;;0.83;100.00;97937.69;4956470;28;20070;-60
2021/12/27 07:40:36;;;;;;;52.33;18.70;;;;;;;0.88;100.00;97935.22;4953390;28;20698;-60
2021/12/27 07:43:01;;;;;;;54.58;18.67;;;;;;;0.80;100.00;97922.25;4949764;28;20467;-60
2021/12/27 07:45:27;;;;;;;53.90;18.98;;;;;;;0.83;100.00;97924.50;4950770;28;20526;-60
2021/12/27 07:47:52;;;;;;;56.13;18.48;;;;;;;0.90;100.00;97921.81;4952747;28;20081;-60
2021/12/27 07:50:19;;;;;;;52.95;18.95;;;;;;;1.03;100.00;97919.09;4949972;28;20039;-60
2021/12/27 07:52:45;;;;;;;53.38;19.23;;;;;;;1.08;100.00;97914.78;4954896;28;20097;-60
2021/12/27 07:55:10;;;;;;;61.63;23.92;;;;;;;1.07;100.00;97921.13;4932209;28;20042;-61
2021/12/27 07:57:36;;;;;;;63.40;26.77;;;;;;;1.04;100.00;97918.88;4948241;28;20843;-60
2021/12/27 08:00:06;;;;;;;64.10;25.80;;;;;;;1.05;100.00;97923.16;4950972;28;20110;-60
2021/12/27 08:02:32;;;;;;;56.15;21.90;;;;;;;1.11;100.00;97920.69;4954436;28;20035;-61
2021/12/27 08:04:57;;;;;;;56.35;21.30;;;;;;;1.19;100.00;97921.22;4948749;28;20070;-61
2021/12/27 08:07:23;;;;;;;51.75;21.02;;;;;;;1.11;100.00;97910.13;4952074;28;20054;-61
2021/12/27 08:09:48;;;;;;;52.30;21.38;;;;;;;1.10;100.00;97911.13;4952217;28;20039;-61
2021/12/27 08:12:14;;;;;;;54.35;22.30;;;;;;;1.15;100.00;97919.22;4951194;28;20072;-61
2021/12/27 08:14:39;;;;;;;58.50;21.75;;;;;;;1.18;100.00;97916.97;4949638;28;20039;-59
2021/12/27 08:17:05;;;;;;;51.17;19.75;;;;;;;1.18;100.00;97913.53;4951221;28;20042;-61
2021/12/27 08:19:32;;;;;;;48.25;19.88;;;;;;;1.21;100.00;97918.38;4958706;28;20168;-61
2021/12/27 08:21:58;;;;;;;50.08;18.90;;;;;;;1.27;100.00;97914.88;4953769;28;20426;-59
2021/12/27 08:24:23;;;;;;;48.58;19.50;;;;;;;1.25;100.00;97922.22;4950074;28;20442;-58
2021/12/27 08:26:49;;;;;;;50.75;18.27;;;;;;;1.26;100.00;97924.63;4961406;28;20046;-59
2021/12/27 08:29:14;;;;;;;47.13;18.52;;;;;;;1.29;100.00;97920.75;4951480;28;20027;-59
2021/12/27 08:31:39;;;;;;;49.40;16.95;;;;;;;1.34;100.00;97923.53;4953669;28;20062;-59
2021/12/27 08:34:05;;;;;;;45.40;19.00;;;;;;;1.35;100.00;97927.81;4959449;28;20031;-59
2021/12/27 08:36:31;;;;;;;51.40;19.00;;;;;;;1.35;100.00;97921.69;4955552;28;20054;-59
2021/12/27 08:38:56;;;;;;;46.42;17.55;;;;;;;1.39;100.00;97921.06;4955861;28;20429;-59
2021/12/27 08:41:27;;;;;;;43.88;17.55;;;;;;;1.37;100.00;97912.53;4956505;28;20047;-59
2021/12/27 08:43:54;;;;;;;44.08;17.65;;;;;;;1.40;100.00;97901.56;4948629;28;20035;-59
2021/12/27 08:46:20;;;;;;;43.85;16.63;;;;;;;1.44;100.00;97900.09;4947693;28;20118;-59
2021/12/27 08:48:45;;;;;;;48.10;19.40;;;;;;;1.28;100.00;97887.47;4949569;28;20545;-60
2021/12/27 08:51:10;;;;;;;43.65;16.17;;;;;;;1.26;100.00;97878.94;4951468;28;20042;-59
2021/12/27 08:53:37;;;;;;;39.33;17.75;;;;;;;1.28;100.00;97882.19;4950993;28;20031;-61
2021/12/27 08:56:03;;;;;;;44.35;18.52;;;;;;;1.38;100.00;97882.50;4950607;28;20073;-62
2021/12/27 08:58:29;;;;;;;41.20;17.42;;;;;;;1.41;100.00;97892.63;4954970;28;20027;-62
2021/12/27 09:00:54;;;;;;;47.05;19.83;;;;;;;1.45;100.00;97888.53;4953429;28;20085;-62
2021/12/27 09:03:19;;;;;;;49.97;19.05;;;;;;;1.48;100.00;97898.66;4947761;28;20047;-58
2021/12/27 09:05:45;;;;;;;47.45;18.08;;;;;;;1.53;100.00;97899.84;4951708;28;20366;-59
2021/12/27 09:08:10;;;;;;;46.70;17.45;;;;;;;1.63;100.00;97894.88;4955519;28;20307;-59
2021/12/27 09:10:36;;;;;;;49.05;18.15;;;;;;;1.63;100.00;97889.59;4950422;28;20102;-61
2021/12/27 09:13:01;;;;;;;40.25;16.55;;;;;;;1.69;100.00;97891.34;4951937;28;20031;-60
2021/12/27 09:15:30;;;;;;;39.50;16.30;;;;;;;1.69;100.00;97894.81;4951955;28;20537;-58
2021/12/27 09:17:55;;;;;;;44.20;16.23;;;;;;;1.62;100.00;97888.78;4955389;28;20065;-59
2021/12/27 09:20:22;;;;;;;38.90;15.90;;;;;;;1.70;100.00;97898.28;4959117;28;20039;-59
2021/12/27 09:22:47;;;;;;;37.50;15.73;;;;;;;1.77;100.00;97888.44;4954541;28;20483;-58
2021/12/27 09:25:13;;;;;;;42.38;16.25;;;;;;;1.84;100.00;97891.81;4950706;28;20035;-59
2021/12/27 09:27:38;;;;;;;40.33;15.68;;;;;;;1.85;100.00;97898.72;4954611;28;20011;-58
2021/12/27 09:30:04;;;;;;;29.48;13.75;;;;;;;1.90;100.00;97901.53;4945388;28;20487;-59
2021/12/27 09:32:30;;;;;;;42.33;14.77;;;;;;;1.85;100.00;97898.72;4953984;28;20034;-60
2021/12/27 09:34:55;;;;;;;43.00;15.02;;;;;;;1.90;100.00;97904.16;4948660;28;20030;-59
2021/12/27 09:37:21;;;;;;;33.22;14.52;;;;;;;1.85;100.00;97906.66;4948599;28;20035;-62
2021/12/27 09:39:53;;;;;;;36.58;15.13;;;;;;;1.86;100.00;97910.91;4949161;28;20101;-60
2021/12/27 09:42:22;;;;;;;45.45;16.40;;;;;;;1.86;100.00;97895.06;4951294;28;20043;-60
2021/12/27 09:44:47;;;;;;;40.70;16.02;;;;;;;1.90;100.00;97890.97;4950853;28;20034;-59
2021/12/27 09:47:13;;;;;;;37.38;14.93;;;;;;;1.96;100.00;97886.63;4947735;28;20126;-60
2021/12/27 09:49:38;;;;;;;39.25;16.00;;;;;;;1.91;100.00;97876.69;4945754;28;20113;-60
2021/12/27 09:52:04;;;;;;;39.70;15.48;;;;;;;2.01;100.00;97884.13;4951042;28;20039;-60
2021/12/27 09:54:30;;;;;;;38.00;14.48;;;;;;;2.06;100.00;97878.19;4956098;28;20039;-59
2021/12/27 09:56:55;;;;;;;39.08;15.60;;;;;;;2.10;100.00;97868.78;4949727;28;20050;-60
2021/12/27 09:59:22;;;;;;;40.03;15.63;;;;;;;2.35;100.00;97861.56;4951008;28;20387;-60
2021/12/27 10:01:52;;;;;;;39.15;19.42;;;;;;;2.20;100.00;97861.16;4953483;28;20055;-60
2021/12/27 10:04:17;;;;;;;40.88;16.70;;;;;;;2.20;100.00;97866.44;4948695;28;20031;-60
2021/12/27 10:06:43;;;;;;;33.38;14.02;;;;;;;2.37;100.00;97859.50;4945432;28;20664;-59
2021/12/27 10:09:08;;;;;;;32.95;15.15;;;;;;;2.55;100.00;97860.50;4951541;28;20490;-60
2021/12/27 10:11:36;;;;;;;45.47;18.42;;;;;;;2.33;100.00;97853.03;4952560;28;20054;-60
2021/12/27 10:14:17;;;;;;;39.22;16.65;;;;;;;2.23;100.00;97858.06;4946706;28;20417;-60
2021/12/27 10:16:52;;;;;;;42.63;16.17;;;;;;;2.52;100.00;97855.66;4952141;28;20055;-61
2021/12/27 10:19:19;;;;;;;40.22;17.08;;;;;;;2.62;100.00;97853.28;4946806;28;20055;-60
2021/12/27 10:21:45;;;;;;;47.85;18.23;;;;;;;2.71;100.00;97849.28;4951981;28;20058;-59
2021/12/27 10:24:15;;;;;;;46.95;19.05;;;;;;;2.81;100.00;97849.53;4950227;28;20430;-60
2021/12/27 10:26:44;;;;;;;57.20;20.70;;;;;;;2.79;100.00;97846.31;4953475;28;20152;-60
2021/12/27 10:29:15;;;;;;;45.50;18.35;;;;;;;2.60;100.00;97842.13;4953538;28;20035;-60
2021/12/27 10:32:10;;;;;;;36.50;16.10;;;;;;;2.44;100.00;97835.59;4946986;28;20427;-60
2021/12/27 10:34:51;;;;;;;37.17;15.18;;;;;;;2.59;100.00;97840.50;4955318;28;20035;-60
2021/12/27 10:37:21;;;;;;;33.72;15.52;;;;;;;2.67;100.00;97831.44;4942380;28;20043;-60
2021/12/27 10:39:47;;;;;;;34.60;14.60;;;;;;;2.54;100.00;97821.84;4956536;28;20067;-60
2021/12/27 10:42:17;;;;;;;31.27;14.68;;;;;;;2.69;100.00;97829.38;4949587;28;20047;-60
2021/12/27 10:44:43;;;;;;;31.77;14.07;;;;;;;2.88;100.00;97830.94;4946551;28;20722;-60
2021/12/27 10:47:29;;;;;;;33.60;14.32;;;;;;;2.95;100.00;97818.41;4948436;28;20115;-60
2021/12/27 10:50:01;;;;;;;32.47;13.65;;;;;;;3.00;100.00;97825.66;4949569;28;20359;-59
2021/12/27 10:52:42;;;;;;;31.10;14.15;;;;;;;3.18;100.00;97817.63;4947598;28;20051;-60
2021/12/27 10:55:07;;;;;;;33.42;14.25;;;;;;;3.30;100.00;97806.25;4947597;28;20034;-59
2021/12/27 10:57:33;;;;;;;30.38;13.80;;;;;;;3.22;100.00;97807.38;4963048;28;20039;-60
2021/12/27 11:00:21;;;;;;;33.78;14.35;;;;;;;3.30;100.00;97820.28;4953579;28;20339;-60
2021/12/27 11:02:47;;;;;;;36.60;14.75;;;;;;;3.24;100.00;97822.00;4951833;28;20046;-60
2021/12/27 11:05:18;;;;;;;27.75;14.15;;;;;;;3.22;100.00;97823.25;4953431;28;20025;-60
2021/12/27 11:07:43;;;;;;;37.88;15.18;;;;;;;3.13;100.00;97820.16;4951648;28;20493;-60
2021/12/27 11:10:09;;;;;;;29.75;14.98;;;;;;;3.15;100.00;97818.09;4952513;28;20031;-60
2021/12/27 11:12:34;;;;;;;34.65;15.50;;;;;;;3.18;100.00;97811.53;4950077;28;20038;-60
2021/12/27 11:15:00;;;;;;;28.45;14.55;;;;;;;3.22;100.00;97802.91;4954968;28;20541;-59
2021/12/27 11:17:25;;;;;;;30.05;14.07;;;;;;;3.30;100.00;97791.16;4955323;28;20039;-60